Time;durP1;ratioP1;P1;durP2;ratioP2;P2;SDS_P1;SDS_P2;PMS_P1;PMS_P2;Temp;Humidity;BMP_temperature;BMP_pressure;BME280_temperature;BME280_humidity;BME280_pressure;Samples;Min_cycle;Max_cycle;Signal;HPM_P1;HPM_P2
2022/07/09 00:02:22;;;;;;;2.25;1.45;;;;;;;17.65;65.12;99216.78;4972954;28;20069;-88
2022/07/09 00:04:49;;;;;;;1.33;1.23;;;;;;;17.69;64.97;99219.81;4952963;28;20051;-87
2022/07/09 00:07:17;;;;;;;1.50;1.40;;;;;;;17.72;64.05;99213.31;4950129;29;20043;-88
2022/07/09 00:09:44;;;;;;;1.10;1.00;;;;;;;17.72;64.52;99200.03;4935981;28;20059;-88
2022/07/09 00:12:11;;;;;;;1.70;1.30;;;;;;;17.81;64.35;99214.63;4960162;28;20052;-88
2022/07/09 00:14:38;;;;;;;1.15;1.10;;;;;;;17.73;65.40;99194.50;4958299;28;20039;-88
2022/07/09 00:17:05;;;;;;;1.02;1.02;;;;;;;17.81;65.22;99215.47;4941851;29;20082;-88
2022/07/09 00:19:32;;;;;;;1.45;1.20;;;;;;;17.83;64.49;99213.41;4950256;29;20051;-88
2022/07/09 00:22:00;;;;;;;1.60;1.50;;;;;;;17.70;64.95;99204.72;4931789;29;20629;-88
2022/07/09 00:24:27;;;;;;;1.25;1.15;;;;;;;17.79;65.31;99204.25;4947721;29;20086;-88
2022/07/09 00:27:07;;;;;;;2.85;1.30;;;;;;;17.69;65.14;99198.59;4952847;28;20051;-88
2022/07/09 00:29:34;;;;;;;2.55;1.52;;;;;;;17.65;65.90;99198.22;4950325;28;20046;-89
2022/07/09 00:32:01;;;;;;;1.75;1.40;;;;;;;17.62;65.70;99200.50;4949778;29;20070;-87
2022/07/09 00:34:28;;;;;;;1.20;1.10;;;;;;;17.63;67.20;99186.19;4948873;29;20071;-88
2022/07/09 00:36:55;;;;;;;1.30;1.20;;;;;;;17.66;66.65;99196.38;4941643;29;20074;-88
2022/07/09 00:39:22;;;;;;;1.30;1.20;;;;;;;17.65;66.21;99189.47;4964437;28;20043;-87
2022/07/09 00:41:49;;;;;;;2.25;1.73;;;;;;;17.48;66.19;99177.78;4953011;29;20122;-88
2022/07/09 00:44:16;;;;;;;1.75;1.40;;;;;;;17.39;66.17;99179.88;4952659;28;20122;-88
2022/07/09 00:46:43;;;;;;;2.33;1.60;;;;;;;17.30;67.45;99182.00;4952358;28;20549;-87
2022/07/09 00:49:10;;;;;;;1.40;1.30;;;;;;;17.30;67.65;99186.50;4951234;29;20130;-87
2022/07/09 00:51:38;;;;;;;1.45;1.35;;;;;;;17.25;66.57;99200.38;4952509;28;20495;-88
2022/07/09 00:54:05;;;;;;;2.15;1.38;;;;;;;17.15;67.32;99184.16;4950335;29;20106;-87
2022/07/09 00:56:33;;;;;;;2.92;1.85;;;;;;;16.92;67.71;99174.13;4953327;29;20050;-88
2022/07/09 00:59:01;;;;;;;2.00;1.80;;;;;;;17.00;67.93;99191.59;4955521;29;20054;-88
2022/07/09 01:01:28;;;;;;;1.50;1.40;;;;;;;16.95;68.75;99178.19;4935095;29;20044;-88
2022/07/09 01:03:55;;;;;;;2.13;1.38;;;;;;;17.02;68.30;99189.53;4970656;28;20050;-88
2022/07/09 01:06:23;;;;;;;2.50;1.77;;;;;;;16.96;68.15;99187.75;4949354;28;20071;-88
2022/07/09 01:08:50;;;;;;;2.35;1.83;;;;;;;16.87;69.03;99191.69;4968167;28;20049;-89
2022/07/09 01:11:17;;;;;;;2.78;1.75;;;;;;;16.71;69.69;99183.22;4956359;28;20094;-88
2022/07/09 01:13:44;;;;;;;2.85;1.83;;;;;;;16.65;70.34;99184.03;4955216;29;20050;-89
2022/07/09 01:16:15;;;;;;;2.30;2.10;;;;;;;16.60;70.53;99175.91;4956442;28;20036;-88
2022/07/09 01:18:49;;;;;;;2.67;2.00;;;;;;;16.54;71.40;99171.47;4945175;28;20047;-88
2022/07/09 01:21:16;;;;;;;1.98;1.77;;;;;;;16.50;71.05;99163.16;4952264;29;20072;-88
2022/07/09 01:23:43;;;;;;;2.40;1.90;;;;;;;16.47;71.16;99170.69;4954808;29;20500;-88
2022/07/09 01:26:10;;;;;;;2.17;1.70;;;;;;;16.50;70.83;99175.56;4953139;28;20079;-88
2022/07/09 01:28:37;;;;;;;2.45;1.67;;;;;;;16.53;70.77;99164.53;4949701;28;20073;-88
2022/07/09 01:31:04;;;;;;;1.88;1.60;;;;;;;16.53;71.07;99164.53;4955936;28;20043;-89
2022/07/09 01:33:33;;;;;;;1.20;1.10;;;;;;;16.63;71.68;99172.03;4953117;28;20422;-87
2022/07/09 01:36:00;;;;;;;1.08;0.98;;;;;;;16.78;71.49;99173.38;4942436;29;20051;-87
2022/07/09 01:38:27;;;;;;;0.90;0.90;;;;;;;16.82;71.44;99174.59;4956579;28;20082;-87
2022/07/09 01:40:54;;;;;;;0.90;0.90;;;;;;;16.89;70.85;99168.44;4945994;29;20050;-88
2022/07/09 01:43:21;;;;;;;1.00;1.00;;;;;;;17.00;69.37;99168.56;4943095;28;20047;-87
2022/07/09 01:45:47;;;;;;;0.95;0.80;;;;;;;16.96;70.23;99154.13;4953688;29;20408;-87
2022/07/09 01:48:15;;;;;;;0.80;0.80;;;;;;;16.98;70.38;99143.31;4944174;29;20536;-87
2022/07/09 01:50:42;;;;;;;0.80;0.80;;;;;;;17.10;70.27;99154.84;4944188;29;20039;-88
2022/07/09 01:53:09;;;;;;;0.90;0.90;;;;;;;17.18;70.49;99151.91;4947344;28;20135;-87
2022/07/09 01:55:36;;;;;;;0.85;0.80;;;;;;;17.15;69.29;99140.94;4955057;28;20618;-87
2022/07/09 01:58:04;;;;;;;0.80;0.80;;;;;;;17.15;69.86;99128.47;4946766;28;20051;-87
2022/07/09 02:00:32;;;;;;;2.13;0.88;;;;;;;17.17;69.07;99131.75;4955474;28;20578;-88
2022/07/09 02:02:58;;;;;;;1.52;1.30;;;;;;;17.07;69.25;99147.31;4954624;29;20047;-88
2022/07/09 02:05:26;;;;;;;1.38;1.27;;;;;;;16.97;68.36;99144.31;4954189;28;20451;-88
2022/07/09 02:07:53;;;;;;;2.90;1.65;;;;;;;16.82;69.11;99137.50;4945329;29;20586;-88
2022/07/09 02:10:20;;;;;;;3.65;1.90;;;;;;;16.58;69.49;99143.53;4962240;28;20054;-89
2022/07/09 02:12:47;;;;;;;1.73;1.55;;;;;;;16.69;69.63;99142.88;4947884;29;20439;-88
2022/07/09 02:15:14;;;;;;;1.92;1.73;;;;;;;16.66;69.06;99137.16;4936730;29;20091;-88
2022/07/09 02:17:41;;;;;;;2.90;1.90;;;;;;;16.55;70.02;99146.59;4950447;29;20074;-89
2022/07/09 02:20:11;;;;;;;2.85;1.90;;;;;;;16.50;70.21;99141.16;4942962;29;20131;-89
2022/07/09 02:22:38;;;;;;;;;;;;;;;16.56;71.34;99137.66;4939528;29;20050;-88
2022/07/09 02:25:06;;;;;;;1.85;1.60;;;;;;;16.55;70.53;99136.00;4934088;29;19923;-88
2022/07/09 02:27:47;;;;;;;1.90;1.60;;;;;;;16.64;70.32;99145.34;4944749;28;20070;-88
2022/07/09 02:30:13;;;;;;;2.90;1.70;;;;;;;16.54;70.75;99129.09;4952867;28;20058;-88
2022/07/09 02:32:41;;;;;;;1.58;1.48;;;;;;;16.55;71.16;99136.00;4948799;29;20049;-88
2022/07/09 02:35:08;;;;;;;0.93;0.93;;;;;;;16.71;72.24;99143.47;4947575;29;20381;-88
2022/07/09 02:37:35;;;;;;;1.00;1.00;;;;;;;16.74;71.78;99124.53;4951993;28;20039;-87
2022/07/09 02:40:04;;;;;;;1.17;1.08;;;;;;;16.77;71.95;99129.38;4940568;29;20031;-88
2022/07/09 02:42:31;;;;;;;2.08;1.30;;;;;;;16.74;69.64;99118.41;4941780;29;20146;-88
2022/07/09 02:44:58;;;;;;;1.48;1.38;;;;;;;16.67;69.99;99118.41;4954887;28;20031;-88
2022/07/09 02:47:25;;;;;;;1.50;1.40;;;;;;;16.79;70.36;99132.66;4954592;29;20044;-88
2022/07/09 02:49:52;;;;;;;1.88;1.50;;;;;;;16.63;69.72;99142.91;4953370;29;20065;-87
2022/07/09 02:52:19;;;;;;;1.42;1.17;;;;;;;16.65;70.22;99146.97;4954584;28;20047;-88
2022/07/09 02:54:46;;;;;;;0.80;0.80;;;;;;;16.74;71.34;99140.44;4947165;29;20035;-87
2022/07/09 02:57:13;;;;;;;1.85;1.20;;;;;;;16.80;70.94;99136.91;4949886;28;20052;-88
2022/07/09 02:59:40;;;;;;;1.70;1.60;;;;;;;16.66;69.25;99132.69;4953773;28;20128;-88
2022/07/09 03:02:07;;;;;;;2.45;1.40;;;;;;;16.65;69.94;99139.00;4954838;29;20039;-88
2022/07/09 03:04:34;;;;;;;1.65;1.27;;;;;;;16.75;70.37;99128.78;4962628;28;20040;-87
2022/07/09 03:07:01;;;;;;;1.25;1.10;;;;;;;16.82;71.49;99126.91;4944349;29;20078;-88
2022/07/09 03:09:28;;;;;;;1.08;0.98;;;;;;;16.89;71.01;99131.34;4950442;29;20126;-87
2022/07/09 03:11:56;;;;;;;1.38;1.08;;;;;;;16.93;71.25;99127.25;4954280;28;20115;-88
2022/07/09 03:14:23;;;;;;;0.90;0.90;;;;;;;17.00;70.65;99134.13;4948582;29;20052;-88
2022/07/09 03:16:50;;;;;;;0.95;0.93;;;;;;;16.98;70.28;99125.59;4956999;28;20048;-88
2022/07/09 03:19:17;;;;;;;0.80;0.80;;;;;;;16.92;70.24;99117.69;4951586;29;20651;-88
2022/07/09 03:21:44;;;;;;;1.25;1.08;;;;;;;16.98;69.98;99130.06;4946038;28;21064;-87
2022/07/09 03:24:12;;;;;;;1.00;1.00;;;;;;;16.99;70.72;99142.28;4948253;28;20071;-88
2022/07/09 03:26:39;;;;;;;1.20;1.10;;;;;;;16.98;70.12;99132.72;4946359;28;20408;-88
2022/07/09 03:29:07;;;;;;;0.82;0.82;;;;;;;16.98;70.90;99128.22;4952979;28;20051;-88
2022/07/09 03:31:34;;;;;;;1.45;0.77;;;;;;;17.01;70.92;99125.13;4953804;28;20098;-88
2022/07/09 03:34:01;;;;;;;0.93;0.93;;;;;;;17.06;70.80;99116.53;4966365;28;20467;-89
2022/07/09 03:36:28;;;;;;;0.82;0.82;;;;;;;16.96;70.60;99108.25;4951002;28;20059;-88
2022/07/09 03:38:55;;;;;;;1.10;1.02;;;;;;;17.03;70.28;99116.97;4942406;29;20039;-89
2022/07/09 03:41:23;;;;;;;1.08;1.00;;;;;;;17.04;71.26;99121.25;4947404;28;20066;-90
2022/07/09 03:43:50;;;;;;;0.85;0.85;;;;;;;17.01;70.95;99108.41;4942118;29;20126;-89
2022/07/09 03:46:17;;;;;;;0.80;0.80;;;;;;;17.10;71.13;99125.69;4946166;28;20127;-88
2022/07/09 03:48:46;;;;;;;0.75;0.75;;;;;;;17.14;71.46;99134.81;4968822;28;20039;-89
2022/07/09 03:51:13;;;;;;;1.05;0.98;;;;;;;17.14;70.79;99126.88;4942844;29;20078;-89
2022/07/09 03:53:40;;;;;;;1.05;0.90;;;;;;;17.11;71.50;99114.06;4953767;29;20043;-90
2022/07/09 03:56:07;;;;;;;1.00;1.00;;;;;;;17.06;71.05;99108.59;4952591;29;20043;-88
2022/07/09 03:58:35;;;;;;;1.23;1.13;;;;;;;17.13;71.02;99127.91;4949031;29;20036;-88
2022/07/09 04:01:03;;;;;;;1.00;1.00;;;;;;;17.13;71.32;99122.59;4962244;28;20043;-88
2022/07/09 04:03:31;;;;;;;1.00;1.00;;;;;;;17.20;71.36;99136.59;4944104;28;20062;-88
2022/07/09 04:05:58;;;;;;;0.98;0.90;;;;;;;17.25;71.43;99134.13;4943575;28;20100;-88
2022/07/09 04:08:25;;;;;;;0.90;0.90;;;;;;;17.21;70.97;99134.75;4939283;29;20078;-88
2022/07/09 04:10:52;;;;;;;2.60;1.40;;;;;;;17.15;70.35;99111.75;4945953;28;20511;-89
2022/07/09 04:13:19;;;;;;;2.05;1.40;;;;;;;17.15;70.05;99125.81;4956382;28;20615;-87
2022/07/09 04:15:46;;;;;;;1.23;1.10;;;;;;;17.11;70.74;99129.97;4941527;29;20044;-88
2022/07/09 04:18:17;;;;;;;1.20;1.13;;;;;;;17.13;70.83;99133.19;4943113;29;20522;-88
2022/07/09 04:20:44;;;;;;;1.13;1.02;;;;;;;17.07;71.72;99124.25;4950090;28;20055;-88
2022/07/09 04:23:12;;;;;;;1.02;1.00;;;;;;;17.15;72.47;99139.09;4953170;28;20067;-89
2022/07/09 04:25:39;;;;;;;1.05;1.05;;;;;;;17.13;72.76;99134.00;4949283;28;20047;-89
2022/07/09 04:28:08;;;;;;;1.42;1.20;;;;;;;17.07;71.86;99118.97;4951742;28;20549;-88
2022/07/09 04:30:35;;;;;;;1.00;1.00;;;;;;;17.19;72.28;99128.88;4949211;28;20155;-89
2022/07/09 04:33:03;;;;;;;0.82;0.82;;;;;;;17.10;72.36;99117.75;4943652;29;20439;-88
2022/07/09 04:35:30;;;;;;;1.00;1.00;;;;;;;17.17;71.64;99129.09;4952312;28;20519;-89
2022/07/09 04:37:57;;;;;;;1.05;1.00;;;;;;;17.20;71.36;99138.44;4951191;29;20069;-88
2022/07/09 04:40:24;;;;;;;0.95;0.90;;;;;;;17.12;71.84;99132.38;4945429;29;20073;-89
2022/07/09 04:42:52;;;;;;;1.17;1.08;;;;;;;17.21;72.61;99148.00;4965303;28;20051;-89
2022/07/09 04:45:19;;;;;;;1.05;1.02;;;;;;;17.23;72.07;99144.13;4943205;28;20119;-89
2022/07/09 04:47:46;;;;;;;0.90;0.90;;;;;;;17.23;70.57;99141.47;4944085;29;20415;-88
2022/07/09 04:50:13;;;;;;;1.02;0.93;;;;;;;17.14;71.71;99126.88;4943343;29;20082;-89
2022/07/09 04:52:41;;;;;;;1.30;1.20;;;;;;;17.27;70.30;99133.88;4949735;29;20142;-88
2022/07/09 04:55:10;;;;;;;1.23;1.13;;;;;;;17.27;70.28;99131.22;4960717;28;20106;-89
2022/07/09 04:57:37;;;;;;;1.20;1.00;;;;;;;17.26;71.96;99142.88;4947897;29;20134;-88
2022/07/09 05:00:05;;;;;;;1.00;1.00;;;;;;;17.20;71.36;99128.66;4946098;29;20047;-90
2022/07/09 05:02:32;;;;;;;1.33;1.23;;;;;;;17.20;71.15;99126.00;4943674;29;20075;-89
2022/07/09 05:04:59;;;;;;;1.38;1.27;;;;;;;17.18;70.66;99125.41;4936822;29;21003;-89
2022/07/09 05:07:26;;;;;;;1.35;1.25;;;;;;;17.25;71.14;99139.41;4964913;28;20047;-89
2022/07/09 05:09:54;;;;;;;1.15;1.08;;;;;;;17.14;69.83;99121.56;4947013;29;20512;-87
2022/07/09 05:12:21;;;;;;;1.95;1.38;;;;;;;17.16;70.78;99116.88;4962021;28;20119;-90
2022/07/09 05:14:48;;;;;;;1.30;1.20;;;;;;;17.21;70.30;99130.25;4967882;28;20054;-90
2022/07/09 05:17:15;;;;;;;1.58;1.23;;;;;;;17.23;70.78;99132.72;4948369;29;20617;-88
2022/07/09 05:19:43;;;;;;;1.40;1.30;;;;;;;17.35;69.84;99138.94;4957998;28;20146;-90
2022/07/09 05:22:10;;;;;;;1.23;1.17;;;;;;;17.27;70.33;99126.78;4942293;28;20043;-88
2022/07/09 05:24:37;;;;;;;2.72;1.80;;;;;;;17.26;69.76;99129.63;4947752;29;21027;-89
2022/07/09 05:27:10;;;;;;;1.95;1.70;;;;;;;17.35;68.93;99141.59;4949131;29;20043;-89
2022/07/09 05:29:37;;;;;;;1.48;1.38;;;;;;;17.34;69.57;99134.66;4950940;29;20047;-91
2022/07/09 05:32:05;;;;;;;1.50;1.40;;;;;;;17.30;69.50;99113.06;4952681;28;20035;-90
2022/07/09 05:34:32;;;;;;;1.52;1.42;;;;;;;17.49;68.80;99142.25;4952363;28;20103;-89
2022/07/09 05:36:59;;;;;;;3.88;1.50;;;;;;;17.56;68.70;99137.69;4952242;29;20036;-89
2022/07/09 05:39:27;;;;;;;1.67;1.40;;;;;;;17.57;69.71;99134.00;4952569;28;20129;-89
2022/07/09 05:41:54;;;;;;;1.63;1.42;;;;;;;17.61;69.42;99130.72;4951735;29;20104;-88
2022/07/09 05:44:21;;;;;;;1.50;1.40;;;;;;;17.60;69.94;99122.97;4946014;29;20610;-88
2022/07/09 05:46:51;;;;;;;1.63;1.50;;;;;;;17.70;70.28;99122.47;4949825;28;20408;-90
2022/07/09 05:49:18;;;;;;;1.50;1.40;;;;;;;17.72;70.37;99125.75;4953846;29;20051;-91
2022/07/09 05:51:45;;;;;;;1.60;1.20;;;;;;;17.73;71.09;99122.06;4960590;28;20058;-89
2022/07/09 05:54:12;;;;;;;1.48;1.38;;;;;;;17.65;71.09;99115.19;4969894;28;20492;-89
2022/07/09 05:56:40;;;;;;;1.35;1.20;;;;;;;17.71;72.31;99129.41;4936624;29;20846;-88
2022/07/09 05:59:08;;;;;;;1.50;1.40;;;;;;;17.73;70.04;99136.13;4955205;29;20050;-89
2022/07/09 06:01:39;;;;;;;1.45;1.30;;;;;;;17.80;71.68;99126.25;4954299;28;20044;-90
2022/07/09 06:04:07;;;;;;;1.42;1.33;;;;;;;17.81;71.31;99119.09;4953899;29;20050;-90
2022/07/09 06:06:35;;;;;;;1.88;1.58;;;;;;;17.85;68.28;99131.72;4956131;28;20057;-88
2022/07/09 06:09:03;;;;;;;1.65;1.35;;;;;;;17.94;69.01;99134.09;4941119;29;20051;-90
2022/07/09 06:11:29;;;;;;;1.40;1.30;;;;;;;17.94;70.58;99124.28;4952543;28;20102;-88
2022/07/09 06:13:56;;;;;;;1.75;1.33;;;;;;;17.95;68.68;99133.06;4936157;29;20071;-88
2022/07/09 06:16:24;;;;;;;1.40;1.30;;;;;;;18.01;68.82;99134.81;4953116;29;20031;-88
2022/07/09 06:18:51;;;;;;;1.67;1.58;;;;;;;18.03;69.79;99124.78;4944810;29;20043;-88
2022/07/09 06:21:18;;;;;;;1.27;1.17;;;;;;;18.16;71.32;99136.03;4966256;28;20435;-88
2022/07/09 06:23:45;;;;;;;2.75;1.40;;;;;;;18.17;69.84;99139.50;4951499;29;20047;-88
2022/07/09 06:26:12;;;;;;;1.60;1.30;;;;;;;18.12;70.35;99124.25;4941762;29;20392;-88
2022/07/09 06:28:39;;;;;;;1.38;1.20;;;;;;;18.15;69.92;99125.66;4940871;29;20440;-89
2022/07/09 06:31:06;;;;;;;1.20;1.10;;;;;;;18.25;70.96;99123.28;4947182;29;20043;-89
2022/07/09 06:33:33;;;;;;;1.23;1.13;;;;;;;18.24;69.84;99110.25;4951320;28;20073;-89
2022/07/09 06:36:00;;;;;;;1.65;1.33;;;;;;;18.36;71.10;99121.72;4953254;29;20126;-88
2022/07/09 06:38:29;;;;;;;2.20;1.30;;;;;;;18.44;70.52;99130.16;4955234;28;20099;-89
2022/07/09 06:40:56;;;;;;;1.30;1.20;;;;;;;18.52;69.40;99120.25;4948154;28;20075;-89
2022/07/09 06:43:23;;;;;;;1.45;1.20;;;;;;;18.68;70.50;99130.28;4942781;29;20043;-88
2022/07/09 06:45:52;;;;;;;2.13;1.85;;;;;;;18.70;69.92;99117.56;4943173;29;20559;-88
2022/07/09 06:48:19;;;;;;;2.50;2.30;;;;;;;18.74;69.82;99108.13;4953870;29;20043;-87
2022/07/09 06:50:46;;;;;;;4.15;2.60;;;;;;;18.85;66.60;99120.63;4953060;28;20412;-88
2022/07/09 06:53:13;;;;;;;1.92;1.70;;;;;;;19.03;67.62;99116.25;4952080;29;20047;-89
2022/07/09 06:55:40;;;;;;;1.60;1.50;;;;;;;19.08;67.88;99119.06;4943894;29;20091;-88
2022/07/09 06:58:07;;;;;;;1.88;1.58;;;;;;;19.18;67.20;99119.25;4954733;28;20079;-88
2022/07/09 07:00:34;;;;;;;1.48;1.38;;;;;;;19.20;64.28;99112.69;4949460;29;20451;-88
2022/07/09 07:03:02;;;;;;;1.40;1.30;;;;;;;19.34;68.37;99115.94;4962159;28;20118;-88
2022/07/09 07:05:29;;;;;;;1.60;1.50;;;;;;;19.61;68.16;99123.44;4946385;28;20593;-88
2022/07/09 07:07:57;;;;;;;1.63;1.30;;;;;;;19.87;64.43;99114.19;4950726;29;20094;-89
2022/07/09 07:10:24;;;;;;;1.98;1.30;;;;;;;20.02;63.42;99115.28;4946428;29;20047;-88
2022/07/09 07:12:55;;;;;;;1.70;1.40;;;;;;;20.29;64.37;99133.38;4938893;28;20146;-88
2022/07/09 07:15:22;;;;;;;1.23;1.20;;;;;;;20.26;65.05;99120.53;4958805;28;20055;-89
2022/07/09 07:17:49;;;;;;;1.33;1.17;;;;;;;20.40;64.50;99108.56;4939911;28;20118;-89
2022/07/09 07:20:25;;;;;;;2.45;1.38;;;;;;;20.45;62.09;99116.69;4942969;29;20106;-89
2022/07/09 07:22:52;;;;;;;1.70;1.60;;;;;;;20.60;59.24;99118.00;4951875;29;20050;-88
2022/07/09 07:25:19;;;;;;;1.50;1.40;;;;;;;20.81;61.48;99117.28;4936970;29;20047;-88
2022/07/09 07:27:56;;;;;;;1.50;1.40;;;;;;;21.02;60.66;99113.91;4941244;29;20519;-89
2022/07/09 07:30:23;;;;;;;1.70;1.60;;;;;;;21.22;57.86;99112.59;4947834;29;20188;-89
2022/07/09 07:32:50;;;;;;;1.40;1.30;;;;;;;21.40;58.38;99109.69;4959773;28;20099;-88
2022/07/09 07:35:17;;;;;;;1.45;1.20;;;;;;;21.54;57.15;99096.84;4939459;28;20043;-88
2022/07/09 07:37:44;;;;;;;1.30;1.20;;;;;;;21.87;58.70;99107.38;4953289;28;20130;-88
2022/07/09 07:40:12;;;;;;;1.63;1.20;;;;;;;22.18;57.73;99095.22;4950387;29;20071;-90
2022/07/09 07:42:39;;;;;;;1.25;1.15;;;;;;;22.49;55.85;99090.22;4952711;28;20071;-89
2022/07/09 07:45:07;;;;;;;1.27;1.15;;;;;;;22.95;57.71;99082.59;4951782;28;20047;-89
2022/07/09 07:47:34;;;;;;;1.50;1.40;;;;;;;22.98;53.65;99089.31;4953130;28;20063;-88
2022/07/09 07:50:01;;;;;;;1.40;1.30;;;;;;;23.01;53.12;99081.56;4936066;29;20044;-90
2022/07/09 07:52:28;;;;;;;1.52;1.27;;;;;;;22.93;55.16;99082.06;4939898;29;20146;-91
2022/07/09 07:54:55;;;;;;;1.20;1.10;;;;;;;22.90;57.45;99066.50;4942100;29;20036;-89
2022/07/09 07:57:22;;;;;;;1.95;1.23;;;;;;;22.92;54.76;99067.88;4964456;28;20098;-90
2022/07/09 07:59:50;;;;;;;1.30;1.20;;;;;;;22.79;54.81;99062.09;4944785;29;20044;-89
2022/07/09 08:02:16;;;;;;;1.27;1.20;;;;;;;22.86;53.98;99089.47;4952069;28;20071;-89
2022/07/09 08:04:43;;;;;;;2.00;1.30;;;;;;;22.61;52.78;99061.44;4953036;29;20470;-89
2022/07/09 08:07:11;;;;;;;2.10;1.30;;;;;;;22.54;52.66;99071.53;4951626;29;20044;-90
2022/07/09 08:09:38;;;;;;;1.80;1.30;;;;;;;22.54;54.29;99057.34;4960547;28;20047;-89
2022/07/09 08:12:06;;;;;;;1.58;1.10;;;;;;;22.65;54.65;99067.88;4940163;29;20047;-89
2022/07/09 08:14:33;;;;;;;1.35;1.20;;;;;;;22.66;53.90;99064.16;4944707;29;20399;-88
2022/07/09 08:17:00;;;;;;;1.40;1.30;;;;;;;22.75;54.19;99075.19;4941362;29;20035;-87
2022/07/09 08:19:27;;;;;;;1.67;1.30;;;;;;;22.80;53.65;99066.41;4944517;29;20225;-88
2022/07/09 08:21:58;;;;;;;1.30;1.15;;;;;;;22.93;55.77;99064.13;4944274;29;20146;-89
2022/07/09 08:24:26;;;;;;;1.48;1.38;;;;;;;22.92;53.47;99059.06;4947319;28;20395;-88
2022/07/09 08:27:12;;;;;;;1.42;1.30;;;;;;;23.00;52.82;99058.56;4933644;29;20070;-91
2022/07/09 08:29:40;;;;;;;1.80;1.50;;;;;;;22.69;51.60;99058.31;4965038;28;20070;-90
2022/07/09 08:32:08;;;;;;;2.58;1.70;;;;;;;22.30;51.93;99054.19;4950137;29;20046;-90
2022/07/09 08:34:35;;;;;;;1.80;1.60;;;;;;;22.70;52.40;99059.09;4949911;29;20047;-91
2022/07/09 08:37:02;;;;;;;1.50;1.40;;;;;;;22.76;51.46;99046.59;4950922;28;20507;-91
2022/07/09 08:39:29;;;;;;;1.30;1.15;;;;;;;23.12;51.78;99048.47;4946699;29;20070;-91
2022/07/09 08:41:59;;;;;;;1.67;1.33;;;;;;;23.28;51.82;99035.19;4932543;29;20160;-93
2022/07/09 08:44:33;;;;;;;2.60;2.00;;;;;;;23.21;52.42;99038.91;4957088;28;20043;-92
2022/07/09 08:47:01;;;;;;;3.50;1.50;;;;;;;23.14;49.87;99043.66;4967491;28;20047;-91
2022/07/09 08:49:31;;;;;;;1.98;1.20;;;;;;;22.76;51.76;99033.22;4942515;28;20396;-90
2022/07/09 08:52:02;;;;;;;2.08;1.23;;;;;;;22.44;52.07;99026.00;4960674;28;20143;-90
2022/07/09 08:54:33;;;;;;;3.00;1.30;;;;;;;22.20;52.60;99032.75;4934065;29;20055;-89
2022/07/09 08:57:00;;;;;;;3.30;1.60;;;;;;;21.78;53.13;99020.78;4939440;29;20699;-88
2022/07/09 08:59:27;;;;;;;1.30;1.20;;;;;;;21.74;56.61;99021.53;4934899;29;20044;-88
2022/07/09 09:01:54;;;;;;;1.30;1.20;;;;;;;21.61;53.71;99022.72;4942654;29;20051;-92
2022/07/09 09:04:23;;;;;;;1.75;1.50;;;;;;;21.58;53.38;99031.19;4945727;28;20095;-89
2022/07/09 09:06:50;;;;;;;1.50;1.40;;;;;;;21.48;53.92;99034.56;4953226;28;20075;-89
2022/07/09 09:09:20;;;;;;;2.03;1.42;;;;;;;21.38;54.16;99015.75;4935535;29;20431;-89
2022/07/09 09:11:50;;;;;;;1.20;1.10;;;;;;;21.57;54.75;99021.59;4950846;28;20055;-89
2022/07/09 09:14:22;;;;;;;1.92;1.30;;;;;;;21.69;55.49;99024.13;4952666;28;20090;-89
2022/07/09 09:16:49;;;;;;;1.20;1.10;;;;;;;21.79;54.18;99021.59;4969308;28;20039;-89
2022/07/09 09:19:17;;;;;;;2.28;1.30;;;;;;;21.83;54.22;99018.19;4975096;28;20102;-89
2022/07/09 09:21:53;;;;;;;1.60;1.17;;;;;;;22.07;55.28;99033.88;4956694;28;20105;-89
2022/07/09 09:24:25;;;;;;;1.42;0.90;;;;;;;22.36;55.82;99021.91;4950386;29;20066;-89
2022/07/09 09:27:05;;;;;;;1.10;1.00;;;;;;;22.63;54.95;99019.22;4940018;29;20043;-89
2022/07/09 09:29:37;;;;;;;1.00;0.90;;;;;;;22.99;54.10;99019.50;4956580;28;20035;-89
2022/07/09 09:32:12;;;;;;;1.60;0.93;;;;;;;23.08;52.10;99007.25;4951290;28;20055;-89
2022/07/09 09:34:41;;;;;;;0.98;0.98;;;;;;;23.10;53.17;99013.16;4955910;29;20050;-88
2022/07/09 09:37:08;;;;;;;2.38;1.10;;;;;;;22.94;53.83;99006.09;4954292;28;20043;-89
2022/07/09 09:39:35;;;;;;;0.88;0.88;;;;;;;23.05;51.78;98999.75;4956008;28;20074;-90
2022/07/09 09:42:04;;;;;;;1.15;1.10;;;;;;;23.22;53.29;99004.94;4954253;29;20141;-89
2022/07/09 09:44:40;;;;;;;1.67;1.13;;;;;;;23.42;52.51;99009.56;4956937;28;20406;-89
2022/07/09 09:47:08;;;;;;;1.52;1.42;;;;;;;23.49;50.56;99008.25;4956055;28;20257;-90
2022/07/09 09:49:37;;;;;;;1.05;1.00;;;;;;;23.41;49.83;99007.97;4930031;29;20052;-91
2022/07/09 09:52:10;;;;;;;2.08;1.30;;;;;;;23.34;48.90;99018.09;4954765;29;20090;-89
2022/07/09 09:54:40;;;;;;;1.10;1.00;;;;;;;23.48;50.80;99011.19;4953326;29;20066;-88
2022/07/09 09:57:16;;;;;;;1.15;1.05;;;;;;;23.51;49.07;99002.66;4946918;29;20036;-89
2022/07/09 09:59:45;;;;;;;0.80;0.80;;;;;;;23.61;49.11;99000.00;4940459;29;20130;-89
2022/07/09 10:02:13;;;;;;;0.90;0.85;;;;;;;23.80;50.30;98996.88;4949786;29;20118;-89
2022/07/09 10:04:44;;;;;;;1.85;0.90;;;;;;;23.70;47.82;98984.28;4942248;29;20110;-91
2022/07/09 10:07:15;;;;;;;0.90;0.90;;;;;;;23.52;47.20;98995.44;4944763;29;20052;-89
2022/07/09 10:09:59;;;;;;;1.23;0.90;;;;;;;23.40;51.15;98995.66;4945756;29;20043;-89
2022/07/09 10:12:35;;;;;;;0.80;0.80;;;;;;;23.05;48.67;98989.03;4936045;29;20065;-90
2022/07/09 10:15:24;;;;;;;0.80;0.80;;;;;;;22.93;49.48;98996.47;4942666;29;20103;-90
2022/07/09 10:17:52;;;;;;;1.10;1.10;;;;;;;22.67;48.70;98990.09;4938425;29;20054;-91
2022/07/09 10:20:34;;;;;;;1.17;1.08;;;;;;;22.43;50.68;98978.94;4955397;28;20137;-89
2022/07/09 10:23:03;;;;;;;1.00;1.00;;;;;;;22.24;53.81;98988.41;4954624;28;20085;-89
2022/07/09 10:25:49;;;;;;;1.42;1.13;;;;;;;22.10;51.00;98985.34;4949152;28;20047;-90
2022/07/09 10:28:25;;;;;;;1.30;1.23;;;;;;;21.94;55.64;98992.34;4949049;29;20487;-90
2022/07/09 10:30:53;;;;;;;1.10;1.10;;;;;;;21.86;55.54;98987.47;4954840;29;20070;-90
2022/07/09 10:33:48;;;;;;;1.50;1.20;;;;;;;21.83;56.13;99001.31;4952484;28;20499;-89
2022/07/09 10:36:17;;;;;;;1.23;1.10;;;;;;;21.72;55.27;98994.28;4942471;29;20040;-89
2022/07/09 10:38:55;;;;;;;1.20;1.10;;;;;;;21.84;55.01;98993.06;4953572;29;20051;-89
2022/07/09 10:41:23;;;;;;;1.50;1.30;;;;;;;21.81;52.04;98977.53;4953430;29;20114;-90
2022/07/09 10:43:52;;;;;;;1.15;1.13;;;;;;;21.88;52.79;98975.47;4953397;28;20062;-89
2022/07/09 10:46:19;;;;;;;1.40;1.30;;;;;;;22.03;52.51;98993.53;4953543;29;20459;-92
2022/07/09 10:48:47;;;;;;;1.55;1.40;;;;;;;22.09;52.11;98995.22;4966209;28;20046;-90
2022/07/09 10:51:23;;;;;;;1.25;1.15;;;;;;;22.15;54.15;98977.38;4949603;29;20051;-89
2022/07/09 10:53:50;;;;;;;1.30;1.20;;;;;;;22.44;51.86;98992.06;4956901;28;20055;-88
2022/07/09 10:56:22;;;;;;;1.30;1.20;;;;;;;22.46;51.09;98988.34;4953406;29;20051;-89
2022/07/09 10:58:50;;;;;;;1.40;1.30;;;;;;;22.51;52.23;98991.84;4953402;29;20075;-90
2022/07/09 11:01:24;;;;;;;1.45;1.30;;;;;;;22.58;52.39;98987.09;4934863;29;20146;-91
2022/07/09 11:03:53;;;;;;;1.10;1.10;;;;;;;22.44;52.41;98975.22;4945712;29;20047;-89
2022/07/09 11:06:21;;;;;;;1.50;1.40;;;;;;;22.31;51.81;98986.31;4954657;29;20035;-90
2022/07/09 11:08:48;;;;;;;1.63;1.20;;;;;;;22.11;51.53;98985.09;4941881;29;20411;-90
2022/07/09 11:11:24;;;;;;;2.35;1.33;;;;;;;22.12;52.14;98994.72;4953911;28;20055;-91
2022/07/09 11:13:55;;;;;;;1.20;1.10;;;;;;;22.07;50.97;98983.13;4949502;29;20055;-90
2022/07/09 11:16:26;;;;;;;1.52;1.30;;;;;;;22.03;52.12;98985.53;4946420;29;20043;-90
2022/07/09 11:18:54;;;;;;;1.30;1.20;;;;;;;21.94;52.20;98992.34;4953493;29;20668;-91
2022/07/09 11:21:25;;;;;;;1.70;1.40;;;;;;;21.78;52.91;98977.25;4954428;28;20510;-91
2022/07/09 11:23:53;;;;;;;1.58;1.25;;;;;;;21.76;52.39;98988.16;4936348;29;20570;-91
2022/07/09 11:26:21;;;;;;;1.30;1.20;;;;;;;21.68;55.20;98985.16;4946365;29;20039;-88
2022/07/09 11:28:48;;;;;;;2.13;1.50;;;;;;;21.56;53.50;98975.41;4947409;29;20543;-91
2022/07/09 11:31:17;;;;;;;1.50;1.40;;;;;;;21.55;53.59;98963.13;4942573;29;20848;-91
2022/07/09 11:37:09;;;;;;;1.58;1.30;;;;;;;21.60;54.25;98976.53;4938410;29;20052;-91
2022/07/09 11:39:37;;;;;;;1.40;1.30;;;;;;;21.55;53.12;98973.78;4932158;29;20130;-90
2022/07/09 11:42:04;;;;;;;1.92;1.50;;;;;;;21.59;53.69;98969.59;4958741;28;20546;-90
2022/07/09 11:44:33;;;;;;;1.58;1.48;;;;;;;21.64;52.61;98972.28;4948266;29;20099;-90